Time;durP1;ratioP1;P1;durP2;ratioP2;P2;SDS_P1;SDS_P2;PMS_P1;PMS_P2;Temp;Humidity;BMP_temperature;BMP_pressure;BME280_temperature;BME280_humidity;BME280_pressure;Samples;Min_cycle;Max_cycle;Signal;HPM_P1;HPM_P2
2021/09/17 00:00:28;;;;;;;15.27;8.93;;;11.90;94.50;;;;;;4965614;28;20061;-69
2021/09/17 00:02:54;;;;;;;15.35;9.25;;;11.90;94.60;;;;;;4974181;28;20106;-69
2021/09/17 00:05:20;;;;;;;13.15;8.15;;;11.80;94.40;;;;;;4978560;28;20364;-69
2021/09/17 00:07:46;;;;;;;13.15;9.23;;;11.80;94.30;;;;;;4975929;28;20019;-70
2021/09/17 00:10:12;;;;;;;14.07;9.40;;;11.80;94.20;;;;;;4980690;28;20029;-69
2021/09/17 00:12:38;;;;;;;12.30;8.07;;;11.80;94.60;;;;;;4985742;28;20424;-69
2021/09/17 00:15:04;;;;;;;15.35;8.63;;;11.80;94.50;;;;;;4964308;28;20043;-69
2021/09/17 00:17:30;;;;;;;12.75;9.20;;;11.70;94.70;;;;;;4977493;28;20042;-70
2021/09/17 00:19:56;;;;;;;14.50;9.80;;;11.70;94.90;;;;;;4988162;28;20420;-69
2021/09/17 00:22:22;;;;;;;13.30;8.27;;;11.70;94.80;;;;;;4986003;28;20368;-69
2021/09/17 00:24:47;;;;;;;16.30;9.50;;;11.60;94.50;;;;;;4960641;28;20105;-69
2021/09/17 00:27:13;;;;;;;11.90;8.80;;;11.60;94.60;;;;;;4980445;28;20030;-69
2021/09/17 00:29:39;;;;;;;17.02;10.48;;;11.60;94.40;;;;;;4975236;28;20041;-69
2021/09/17 00:32:05;;;;;;;15.88;10.93;;;11.60;94.50;;;;;;4979358;28;20071;-68
2021/09/17 00:34:31;;;;;;;16.52;9.82;;;11.60;94.30;;;;;;4989882;28;20081;-70
2021/09/17 00:36:56;;;;;;;14.05;9.80;;;11.60;94.40;;;;;;4980836;28;20030;-70
2021/09/17 00:39:22;;;;;;;14.15;10.18;;;11.60;94.50;;;;;;4978051;28;20332;-69
2021/09/17 00:41:48;;;;;;;15.73;10.52;;;11.60;94.60;;;;;;4983012;28;20030;-68
2021/09/17 00:44:25;;;;;;;14.05;9.95;;;11.60;94.40;;;;;;4979072;28;20019;-70
2021/09/17 00:46:52;;;;;;;16.88;10.25;;;11.60;93.70;;;;;;4965757;28;20462;-69
2021/09/17 00:49:19;;;;;;;18.65;10.95;;;11.60;94.00;;;;;;4976514;28;20050;-69
2021/09/17 00:51:46;;;;;;;16.88;11.45;;;11.60;94.30;;;;;;4975455;28;20048;-69
2021/09/17 00:54:12;;;;;;;17.42;11.77;;;11.60;94.20;;;;;;4978540;28;20026;-69
2021/09/17 00:56:37;;;;;;;14.80;9.35;;;11.60;93.90;;;;;;4977440;28;20336;-69
2021/09/17 00:59:03;;;;;;;19.48;10.70;;;11.60;94.00;;;;;;4982530;28;20025;-70
2021/09/17 01:01:29;;;;;;;16.92;10.75;;;11.60;94.20;;;;;;4966544;28;20354;-69
2021/09/17 01:03:55;;;;;;;15.07;10.73;;;11.60;94.20;;;;;;4977629;28;20037;-69
2021/09/17 01:06:20;;;;;;;15.18;9.50;;;11.60;93.80;;;;;;4979176;28;20030;-69
2021/09/17 01:08:46;;;;;;;14.77;10.07;;;11.60;94.00;;;;;;4980802;28;20030;-70
2021/09/17 01:11:12;;;;;;;16.02;9.50;;;11.60;94.00;;;;;;4975608;28;20085;-69
2021/09/17 01:13:39;;;;;;;15.35;10.80;;;11.60;93.90;;;;;;4979643;28;20372;-69
2021/09/17 01:16:05;;;;;;;13.27;9.68;;;11.60;94.00;;;;;;4980128;28;20038;-70
2021/09/17 01:18:31;;;;;;;16.00;9.63;;;11.60;93.70;;;;;;4980594;28;20037;-69
2021/09/17 01:20:58;;;;;;;16.08;10.82;;;11.60;94.10;;;;;;4983344;28;20109;-69
2021/09/17 01:23:24;;;;;;;15.57;9.73;;;11.60;94.40;;;;;;4977284;28;20019;-68
2021/09/17 01:25:50;;;;;;;17.42;11.23;;;11.60;94.40;;;;;;4983764;28;20049;-68
2021/09/17 01:28:31;;;;;;;21.77;10.05;;;11.60;94.40;;;;;;4980551;28;20101;-69
2021/09/17 01:30:58;;;;;;;16.67;11.07;;;11.50;94.20;;;;;;4986915;28;20030;-71
2021/09/17 01:33:24;;;;;;;19.55;11.40;;;11.60;94.40;;;;;;4969715;28;20088;-72
2021/09/17 01:36:08;;;;;;;18.83;12.45;;;11.50;94.30;;;;;;4980097;28;20105;-69
2021/09/17 01:38:36;;;;;;;19.17;11.23;;;11.50;94.10;;;;;;4960444;28;20046;-69
2021/09/17 01:41:02;;;;;;;19.52;11.32;;;11.50;94.10;;;;;;4968770;28;20081;-69
2021/09/17 01:43:28;;;;;;;16.10;10.38;;;11.50;94.00;;;;;;4980840;28;20030;-69
2021/09/17 01:45:54;;;;;;;15.85;10.60;;;11.50;94.10;;;;;;4979287;28;20408;-69
2021/09/17 01:48:20;;;;;;;16.35;10.85;;;11.50;94.10;;;;;;4989728;28;20023;-69
2021/09/17 01:50:46;;;;;;;20.33;11.48;;;11.40;94.30;;;;;;4978351;28;20037;-69
2021/09/17 01:53:11;;;;;;;15.73;9.15;;;11.40;94.00;;;;;;4975554;28;20063;-70
2021/09/17 01:55:37;;;;;;;18.55;11.77;;;11.40;93.80;;;;;;4980895;28;20112;-69
2021/09/17 01:58:04;;;;;;;17.20;11.57;;;11.40;93.90;;;;;;4973219;28;20600;-69
2021/09/17 02:00:30;;;;;;;20.33;12.35;;;11.40;94.20;;;;;;4981076;28;20026;-70
2021/09/17 02:02:55;;;;;;;17.65;11.38;;;11.40;94.00;;;;;;4978562;28;20336;-69
2021/09/17 02:05:21;;;;;;;15.30;9.63;;;11.40;94.00;;;;;;4977796;28;20030;-69
2021/09/17 02:07:50;;;;;;;22.42;11.80;;;11.30;94.10;;;;;;4958642;28;20026;-69
2021/09/17 02:10:18;;;;;;;19.60;11.85;;;11.30;94.30;;;;;;4978630;28;20030;-69
2021/09/17 02:12:44;;;;;;;16.15;10.13;;;11.20;94.40;;;;;;4979804;28;20425;-69
2021/09/17 02:15:11;;;;;;;17.52;11.25;;;11.10;94.30;;;;;;4964085;28;20035;-69
2021/09/17 02:17:37;;;;;;;17.02;10.75;;;11.00;93.90;;;;;;4960187;28;20113;-69
2021/09/17 02:20:05;;;;;;;18.65;11.80;;;11.00;93.40;;;;;;4984520;28;20113;-69
2021/09/17 02:22:30;;;;;;;18.92;11.48;;;11.00;93.50;;;;;;4978518;28;20344;-69
2021/09/17 02:24:58;;;;;;;22.83;13.02;;;11.00;93.10;;;;;;4974959;28;20089;-69
2021/09/17 02:27:23;;;;;;;19.17;11.93;;;11.10;93.30;;;;;;4977386;28;20031;-69
2021/09/17 02:29:49;;;;;;;20.75;12.73;;;11.10;93.20;;;;;;4986646;28;20041;-69
2021/09/17 02:32:15;;;;;;;17.30;11.70;;;11.10;93.00;;;;;;4986661;28;20331;-70
2021/09/17 02:34:41;;;;;;;17.63;11.23;;;11.20;93.10;;;;;;4968424;28;20110;-69
2021/09/17 02:37:07;;;;;;;18.30;11.57;;;11.20;93.50;;;;;;4974172;28;20035;-69
2021/09/17 02:39:33;;;;;;;17.20;12.02;;;11.20;93.90;;;;;;4976526;28;20042;-69
2021/09/17 02:41:59;;;;;;;19.80;12.70;;;11.20;93.60;;;;;;4961689;28;20631;-69
2021/09/17 02:44:24;;;;;;;20.65;12.98;;;11.20;93.80;;;;;;4970086;28;20096;-69
2021/09/17 02:46:50;;;;;;;21.30;12.43;;;11.20;93.90;;;;;;4960516;28;20023;-69
2021/09/17 02:49:16;;;;;;;19.50;11.27;;;11.20;93.90;;;;;;4972117;28;20034;-69
2021/09/17 02:51:42;;;;;;;17.80;11.43;;;11.20;93.90;;;;;;4988552;28;20123;-69
2021/09/17 02:54:07;;;;;;;18.55;12.25;;;11.20;93.60;;;;;;4973363;28;20424;-69
2021/09/17 02:56:33;;;;;;;20.52;12.48;;;11.20;94.10;;;;;;4981813;28;20341;-69
2021/09/17 02:58:59;;;;;;;18.63;11.52;;;11.20;93.60;;;;;;4978551;28;20019;-69
2021/09/17 03:01:24;;;;;;;18.63;11.85;;;11.20;93.80;;;;;;4962015;28;20066;-70
2021/09/17 03:03:50;;;;;;;18.25;10.82;;;11.30;93.80;;;;;;4987125;28;20531;-71
2021/09/17 03:06:16;;;;;;;20.42;10.75;;;11.20;94.00;;;;;;4973602;28;20027;-69
2021/09/17 03:08:41;;;;;;;17.65;10.50;;;11.30;93.60;;;;;;4959735;28;20436;-69
2021/09/17 03:11:07;;;;;;;15.35;9.73;;;11.30;93.70;;;;;;4981974;28;20035;-70
2021/09/17 03:13:33;;;;;;;16.70;11.13;;;11.30;93.50;;;;;;4975907;28;20027;-69
2021/09/17 03:15:59;;;;;;;15.73;10.13;;;11.30;93.80;;;;;;4980353;28;20023;-69
2021/09/17 03:18:25;;;;;;;17.88;10.73;;;11.30;93.60;;;;;;4968535;28;20038;-69
2021/09/17 03:20:51;;;;;;;15.32;10.20;;;11.30;94.00;;;;;;4981602;28;20023;-70
2021/09/17 03:23:20;;;;;;;16.17;9.88;;;11.30;94.10;;;;;;4974885;28;20026;-70
2021/09/17 03:25:49;;;;;;;16.05;10.25;;;11.30;94.00;;;;;;4978149;28;20482;-70
2021/09/17 03:28:14;;;;;;;16.20;10.27;;;11.30;93.90;;;;;;4969142;28;20035;-70
2021/09/17 03:30:42;;;;;;;12.65;9.00;;;11.40;93.90;;;;;;4980268;28;20031;-70
2021/09/17 03:33:11;;;;;;;13.90;9.52;;;11.40;94.30;;;;;;4975198;28;20030;-69
2021/09/17 03:35:39;;;;;;;13.93;8.25;;;11.40;94.40;;;;;;4972839;28;20022;-70
2021/09/17 03:38:06;;;;;;;15.95;10.40;;;11.40;94.50;;;;;;4955344;28;20433;-70
2021/09/17 03:40:34;;;;;;;15.27;10.27;;;11.40;94.50;;;;;;4977749;28;20041;-70
2021/09/17 03:42:59;;;;;;;12.55;9.35;;;11.40;94.60;;;;;;4973876;28;20443;-70
2021/09/17 03:45:25;;;;;;;17.80;9.77;;;11.40;94.40;;;;;;4977547;28;20026;-70
2021/09/17 03:47:51;;;;;;;13.35;8.88;;;11.40;94.30;;;;;;4975962;28;20023;-71
2021/09/17 03:50:17;;;;;;;16.23;9.48;;;11.50;94.60;;;;;;4976550;28;20031;-70
2021/09/17 03:52:43;;;;;;;21.65;10.70;;;11.40;94.60;;;;;;4975618;28;20079;-70
2021/09/17 03:55:08;;;;;;;17.02;9.00;;;11.40;94.80;;;;;;4980049;28;20038;-71
2021/09/17 03:57:34;;;;;;;11.88;8.68;;;11.40;94.70;;;;;;4971104;28;20059;-70
2021/09/17 04:00:00;;;;;;;15.77;9.70;;;11.40;94.80;;;;;;4978862;28;20022;-70
2021/09/17 04:02:26;;;;;;;14.95;9.93;;;11.40;94.70;;;;;;4979659;28;20038;-70
2021/09/17 04:04:51;;;;;;;14.68;9.68;;;11.40;94.60;;;;;;4979929;28;20039;-70
2021/09/17 04:07:17;;;;;;;18.17;10.73;;;11.40;94.70;;;;;;4976932;28;20015;-70
2021/09/17 04:09:43;;;;;;;17.67;10.65;;;11.50;95.20;;;;;;4970498;28;20027;-70
2021/09/17 04:12:09;;;;;;;22.33;11.02;;;11.40;95.40;;;;;;4976044;28;20058;-70
2021/09/17 04:14:34;;;;;;;13.10;8.95;;;11.50;95.50;;;;;;4978752;28;20046;-69
2021/09/17 04:17:00;;;;;;;14.30;8.68;;;11.50;95.40;;;;;;4974779;28;20054;-69
2021/09/17 04:19:25;;;;;;;14.98;9.77;;;11.50;95.40;;;;;;4975388;28;20425;-69
2021/09/17 04:21:56;;;;;;;14.73;9.90;;;11.40;95.40;;;;;;4975524;28;20106;-69
2021/09/17 04:24:21;;;;;;;17.45;10.88;;;11.50;95.10;;;;;;4969258;28;20034;-69
2021/09/17 04:26:47;;;;;;;14.20;9.80;;;11.50;95.30;;;;;;4973996;28;20114;-70
2021/09/17 04:29:13;;;;;;;16.00;10.48;;;11.50;95.10;;;;;;4984764;28;20518;-70
2021/09/17 04:31:38;;;;;;;16.63;10.98;;;11.50;95.20;;;;;;4979698;28;20031;-70
2021/09/17 04:34:04;;;;;;;14.80;10.15;;;11.50;95.30;;;;;;4986519;28;20105;-70
2021/09/17 04:36:30;;;;;;;17.10;11.20;;;11.50;95.50;;;;;;4963340;28;20089;-70
2021/09/17 04:38:55;;;;;;;17.23;10.52;;;11.50;95.80;;;;;;4981983;28;20037;-70
2021/09/17 04:41:21;;;;;;;14.98;10.75;;;11.60;95.80;;;;;;4983512;28;20037;-70
2021/09/17 04:43:46;;;;;;;17.00;10.02;;;11.60;96.10;;;;;;4981902;28;20026;-70
2021/09/17 04:46:12;;;;;;;16.05;10.68;;;11.60;96.20;;;;;;4993215;28;20022;-70
2021/09/17 04:48:38;;;;;;;15.50;9.73;;;11.60;96.30;;;;;;4989094;28;20420;-70
2021/09/17 04:51:03;;;;;;;17.80;10.57;;;11.60;96.10;;;;;;4991082;28;20439;-70
2021/09/17 04:53:29;;;;;;;21.83;12.07;;;11.60;95.70;;;;;;4988617;28;20443;-69
2021/09/17 04:55:55;;;;;;;19.85;12.18;;;11.60;95.90;;;;;;4980223;28;20121;-70
2021/09/17 04:58:21;;;;;;;25.23;15.02;;;11.60;95.70;;;;;;4969399;28;20407;-70
2021/09/17 05:00:46;;;;;;;21.75;13.52;;;11.60;95.90;;;;;;4979122;28;20027;-70
2021/09/17 05:03:15;;;;;;;22.38;12.48;;;11.70;95.80;;;;;;4978127;28;20035;-70
2021/09/17 05:05:43;;;;;;;17.35;11.52;;;11.70;95.70;;;;;;4983566;28;20030;-70
2021/09/17 05:08:09;;;;;;;15.57;10.13;;;11.70;95.70;;;;;;4971543;28;20132;-70
2021/09/17 05:10:35;;;;;;;17.88;10.63;;;11.60;95.70;;;;;;4979347;28;20030;-70
2021/09/17 05:13:00;;;;;;;18.70;11.88;;;11.60;95.60;;;;;;4978773;28;20044;-70
2021/09/17 05:15:26;;;;;;;18.08;11.98;;;11.60;95.60;;;;;;4998745;28;20403;-70
2021/09/17 05:17:52;;;;;;;18.35;11.23;;;11.60;95.60;;;;;;4998982;28;20026;-70
2021/09/17 05:20:18;;;;;;;17.83;11.70;;;11.60;95.30;;;;;;4983918;28;20029;-70
2021/09/17 05:22:43;;;;;;;20.30;11.20;;;11.60;95.70;;;;;;4988917;28;20030;-70
2021/09/17 05:25:10;;;;;;;16.98;10.85;;;11.70;95.60;;;;;;4997966;28;20063;-70
2021/09/17 05:27:36;;;;;;;20.80;12.38;;;11.70;95.60;;;;;;4985661;28;20019;-70
2021/09/17 05:30:02;;;;;;;17.25;11.85;;;11.70;95.90;;;;;;4979284;28;20026;-70
2021/09/17 05:32:28;;;;;;;21.25;12.43;;;11.80;96.20;;;;;;4980048;28;20030;-70
2021/09/17 05:34:54;;;;;;;17.67;11.27;;;11.80;96.20;;;;;;4973402;28;20025;-70
2021/09/17 05:37:19;;;;;;;15.63;10.18;;;11.80;96.20;;;;;;4974899;28;20033;-70
2021/09/17 05:39:45;;;;;;;18.17;10.55;;;11.90;96.50;;;;;;4978816;28;20034;-70
2021/09/17 05:42:10;;;;;;;13.18;8.82;;;11.90;96.50;;;;;;4980501;28;20022;-70
2021/09/17 05:44:36;;;;;;;15.10;9.70;;;11.90;96.50;;;;;;4977751;28;20117;-70
2021/09/17 05:47:02;;;;;;;13.00;9.55;;;11.90;96.70;;;;;;4978646;28;20479;-70
2021/09/17 05:49:28;;;;;;;12.20;8.73;;;11.90;96.90;;;;;;4978531;28;20077;-70
2021/09/17 05:51:53;;;;;;;14.57;8.45;;;11.90;96.80;;;;;;4978667;28;20023;-70
2021/09/17 05:54:19;;;;;;;11.45;7.78;;;12.00;97.00;;;;;;4990074;28;20336;-70
2021/09/17 05:56:44;;;;;;;11.43;7.15;;;12.00;97.00;;;;;;4993828;28;20049;-70
2021/09/17 05:59:10;;;;;;;9.38;6.47;;;12.00;97.00;;;;;;4997948;28;20030;-70
2021/09/17 06:01:36;;;;;;;9.63;6.55;;;12.10;97.40;;;;;;4997954;28;20034;-70
2021/09/17 06:04:01;;;;;;;11.05;8.00;;;12.20;97.90;;;;;;4997801;28;20018;-70
2021/09/17 06:06:27;;;;;;;10.32;7.50;;;12.20;98.00;;;;;;4945539;28;20027;-70
2021/09/17 06:08:58;;;;;;;12.90;7.60;;;12.20;98.00;;;;;;4964284;28;20039;-70
2021/09/17 06:11:24;;;;;;;11.40;7.53;;;12.20;98.00;;;;;;4970053;28;20038;-70
2021/09/17 06:13:52;;;;;;;9.15;6.30;;;12.20;98.00;;;;;;4977183;28;20420;-70
2021/09/17 06:16:18;;;;;;;9.82;6.40;;;12.30;98.00;;;;;;4978200;28;20050;-70
2021/09/17 06:18:44;;;;;;;10.60;6.57;;;12.40;98.00;;;;;;4978303;28;20059;-70
2021/09/17 06:21:10;;;;;;;8.98;6.97;;;12.40;98.00;;;;;;4977941;28;20395;-70
2021/09/17 06:23:36;;;;;;;9.57;7.32;;;12.50;98.00;;;;;;4965560;28;20106;-70
2021/09/17 06:26:02;;;;;;;9.50;7.15;;;12.60;98.00;;;;;;4997221;28;20050;-70
2021/09/17 06:28:28;;;;;;;9.98;6.97;;;12.60;98.00;;;;;;4996246;28;20415;-70
2021/09/17 06:30:53;;;;;;;9.68;7.53;;;12.60;98.00;;;;;;4988163;28;20034;-70
2021/09/17 06:33:19;;;;;;;11.40;7.40;;;12.70;98.00;;;;;;4989880;28;20041;-70
2021/09/17 06:35:45;;;;;;;10.25;7.72;;;12.80;98.00;;;;;;4977840;28;20054;-70
2021/09/17 06:38:11;;;;;;;10.43;7.32;;;12.90;98.00;;;;;;4975307;28;20376;-70
2021/09/17 06:40:39;;;;;;;12.30;7.40;;;13.00;98.00;;;;;;4979944;28;20058;-70
2021/09/17 06:43:05;;;;;;;9.32;6.03;;;13.10;98.00;;;;;;4965103;28;20030;-69
2021/09/17 06:45:31;;;;;;;10.68;5.78;;;13.20;98.00;;;;;;4982242;28;20076;-70
2021/09/17 06:48:00;;;;;;;8.80;5.28;;;13.40;98.00;;;;;;4979037;28;20022;-70
2021/09/17 06:50:27;;;;;;;8.10;5.70;;;13.30;98.00;;;;;;4982038;28;20033;-70
2021/09/17 06:52:54;;;;;;;8.48;5.70;;;13.30;98.00;;;;;;4979809;28;20041;-70
2021/09/17 06:55:25;;;;;;;10.18;6.38;;;13.30;98.00;;;;;;4994112;28;20117;-71
2021/09/17 06:57:59;;;;;;;8.93;6.63;;;13.20;98.00;;;;;;4981596;28;20074;-69
2021/09/17 07:00:26;;;;;;;9.68;7.15;;;13.20;98.00;;;;;;4986330;28;20125;-70
2021/09/17 07:02:52;;;;;;;8.30;6.15;;;13.30;98.00;;;;;;4978734;28;20118;-70
2021/09/17 07:05:20;;;;;;;9.57;6.68;;;13.50;98.00;;;;;;4978596;28;20555;-70
2021/09/17 07:07:46;;;;;;;9.70;5.50;;;13.60;98.00;;;;;;4977780;28;20019;-70
2021/09/17 07:10:12;;;;;;;8.93;5.75;;;13.70;98.00;;;;;;4980694;28;20026;-69
2021/09/17 07:12:38;;;;;;;12.02;6.53;;;13.80;98.00;;;;;;4960050;28;20032;-69
2021/09/17 07:15:08;;;;;;;8.10;5.47;;;14.20;98.00;;;;;;4976936;28;20038;-70
2021/09/17 07:17:34;;;;;;;9.25;5.38;;;14.50;98.00;;;;;;4986060;28;20058;-69
2021/09/17 07:20:03;;;;;;;9.05;6.45;;;14.80;98.00;;;;;;4981246;28;20038;-69
2021/09/17 07:22:28;;;;;;;8.30;6.22;;;14.90;98.00;;;;;;4978735;28;20037;-70
2021/09/17 07:24:54;;;;;;;9.00;5.70;;;15.00;98.00;;;;;;4977835;28;20026;-70
2021/09/17 07:27:22;;;;;;;8.13;5.68;;;15.00;98.00;;;;;;4977541;28;20114;-71
2021/09/17 07:29:48;;;;;;;11.82;7.47;;;15.20;98.00;;;;;;4981682;28;20046;-70
2021/09/17 07:32:14;;;;;;;9.65;7.50;;;15.30;98.00;;;;;;4978746;28;20031;-70
2021/09/17 07:34:39;;;;;;;12.25;6.88;;;15.10;98.00;;;;;;4985424;28;20026;-70
2021/09/17 07:37:05;;;;;;;11.18;6.43;;;15.10;98.00;;;;;;4982041;28;20027;-71
2021/09/17 07:39:31;;;;;;;8.82;5.20;;;15.10;98.00;;;;;;4983828;28;20030;-70
2021/09/17 07:41:57;;;;;;;5.90;4.13;;;15.30;98.00;;;;;;4983146;28;20030;-70
2021/09/17 07:44:23;;;;;;;9.15;5.28;;;15.60;98.00;;;;;;4983200;28;20037;-70
2021/09/17 07:46:49;;;;;;;7.03;4.18;;;15.80;97.50;;;;;;4966643;28;20027;-70
2021/09/17 07:49:14;;;;;;;15.90;9.98;;;16.10;95.60;;;;;;4981191;28;20117;-70
2021/09/17 07:51:40;;;;;;;12.02;7.38;;;16.30;98.00;;;;;;4972422;28;20413;-70
2021/09/17 07:54:06;;;;;;;16.15;8.77;;;16.10;97.80;;;;;;4975979;28;20384;-70
2021/09/17 07:56:31;;;;;;;12.40;8.02;;;15.80;98.00;;;;;;4979015;28;20023;-70
2021/09/17 07:58:57;;;;;;;15.05;9.35;;;15.60;98.00;;;;;;4982657;28;20026;-70
2021/09/17 08:01:22;;;;;;;13.18;9.07;;;15.60;98.00;;;;;;4983022;28;20026;-69
2021/09/17 08:03:48;;;;;;;13.18;9.02;;;15.70;98.00;;;;;;4984148;28;20034;-70
2021/09/17 08:06:16;;;;;;;11.73;7.47;;;15.90;98.00;;;;;;4983281;28;20352;-70
2021/09/17 08:08:42;;;;;;;10.82;6.43;;;16.40;98.00;;;;;;4967564;28;20026;-70
2021/09/17 08:11:08;;;;;;;10.48;6.40;;;16.60;96.20;;;;;;4981884;28;20137;-70
2021/09/17 08:13:33;;;;;;;12.02;6.82;;;16.70;95.90;;;;;;4981176;28;20125;-70
2021/09/17 08:15:59;;;;;;;14.05;7.35;;;16.70;95.30;;;;;;4983337;28;20069;-70
2021/09/17 08:18:25;;;;;;;12.68;7.82;;;16.80;95.40;;;;;;4990825;28;20030;-70
2021/09/17 08:20:53;;;;;;;11.27;7.22;;;16.70;95.00;;;;;;4984600;28;20030;-70
2021/09/17 08:23:20;;;;;;;8.90;6.00;;;16.60;96.00;;;;;;4984648;28;20037;-70
2021/09/17 08:25:46;;;;;;;6.07;4.25;;;16.70;93.90;;;;;;4968431;28;20336;-70
2021/09/17 08:28:12;;;;;;;6.07;3.50;;;17.00;91.90;;;;;;4980601;28;20141;-70
2021/09/17 08:30:38;;;;;;;6.13;4.20;;;17.20;90.20;;;;;;4982199;28;20039;-69
2021/09/17 08:33:04;;;;;;;7.97;4.45;;;17.40;89.30;;;;;;4982618;28;20057;-70
2021/09/17 08:35:30;;;;;;;6.95;4.50;;;17.30;89.50;;;;;;4987536;28;20031;-70
2021/09/17 08:37:56;;;;;;;5.78;3.30;;;17.40;90.10;;;;;;4971697;28;20041;-70
2021/09/17 08:40:24;;;;;;;5.22;3.50;;;18.10;87.00;;;;;;4985650;28;20068;-70
2021/09/17 08:42:50;;;;;;;5.88;3.85;;;18.70;87.40;;;;;;4980578;28;20375;-70
2021/09/17 08:45:18;;;;;;;5.63;3.83;;;19.10;84.90;;;;;;4982117;28;20672;-70
2021/09/17 08:47:51;;;;;;;6.13;3.30;;;19.50;84.70;;;;;;4982082;28;20019;-70
2021/09/17 08:50:18;;;;;;;5.90;3.03;;;19.80;82.00;;;;;;4983797;28;20038;-70
2021/09/17 08:52:43;;;;;;;5.50;3.03;;;20.10;79.00;;;;;;4977863;28;20035;-70
2021/09/17 08:55:09;;;;;;;3.90;1.92;;;20.30;78.60;;;;;;4984772;28;20420;-70
2021/09/17 08:57:35;;;;;;;4.07;2.38;;;20.40;75.50;;;;;;4981988;28;20054;-70
2021/09/17 09:00:01;;;;;;;9.10;4.95;;;20.60;73.80;;;;;;4981380;28;20027;-70
2021/09/17 09:02:29;;;;;;;7.78;4.43;;;20.40;81.00;;;;;;4985122;28;20027;-70
2021/09/17 09:04:59;;;;;;;7.15;4.47;;;20.00;82.30;;;;;;4982694;28;20027;-70
2021/09/17 09:07:40;;;;;;;6.03;3.35;;;19.60;82.30;;;;;;4985904;28;20026;-70
2021/09/17 09:10:11;;;;;;;8.10;4.38;;;19.20;81.00;;;;;;4983166;28;20027;-70
2021/09/17 09:12:49;;;;;;;6.15;3.90;;;19.00;82.90;;;;;;4981065;28;20031;-70
2021/09/17 09:15:26;;;;;;;6.50;3.90;;;18.70;82.40;;;;;;4983244;28;20030;-70
2021/09/17 09:17:56;;;;;;;7.00;4.78;;;18.40;83.90;;;;;;4986099;28;20030;-70
2021/09/17 09:20:24;;;;;;;9.98;6.88;;;18.60;86.10;;;;;;4984122;28;20060;-70
2021/09/17 09:23:17;;;;;;;9.32;5.47;;;18.20;86.80;;;;;;4982370;28;20413;-70
2021/09/17 09:26:06;;;;;;;9.00;5.03;;;18.00;87.20;;;;;;4986914;28;20054;-70
2021/09/17 09:28:40;;;;;;;6.95;3.95;;;18.30;86.30;;;;;;4984246;28;20026;-70
2021/09/17 09:31:08;;;;;;;5.95;3.30;;;18.70;84.50;;;;;;4964409;28;20157;-70
2021/09/17 09:33:42;;;;;;;7.60;3.90;;;20.00;80.00;;;;;;4980512;28;20034;-70
2021/09/17 09:36:08;;;;;;;6.82;3.97;;;21.20;76.60;;;;;;4986745;28;20046;-70
2021/09/17 09:38:38;;;;;;;6.45;3.90;;;22.20;74.50;;;;;;4985531;28;20122;-70
2021/09/17 09:41:06;;;;;;;8.55;4.80;;;21.80;75.50;;;;;;4986105;28;20113;-70
2021/09/17 09:43:35;;;;;;;5.50;3.67;;;21.20;76.10;;;;;;4980164;28;20015;-70
2021/09/17 09:46:29;;;;;;;7.30;4.10;;;20.50;75.70;;;;;;4982183;28;20371;-69
2021/09/17 09:49:26;;;;;;;4.70;3.10;;;19.80;78.40;;;;;;4986390;28;20077;-69
2021/09/17 09:51:59;;;;;;;5.15;3.22;;;19.50;78.80;;;;;;4971163;28;20456;-70
2021/09/17 09:54:32;;;;;;;5.00;3.30;;;19.50;77.50;;;;;;4985127;28;20114;-70
2021/09/17 09:57:03;;;;;;;5.45;3.75;;;19.30;78.70;;;;;;4980614;28;20047;-70
2021/09/17 09:59:33;;;;;;;9.80;4.72;;;19.20;79.10;;;;;;4979925;28;20054;-70
2021/09/17 10:02:02;;;;;;;6.88;3.90;;;19.00;81.00;;;;;;4965986;28;20038;-70
2021/09/17 10:04:30;;;;;;;7.38;4.35;;;18.80;82.20;;;;;;4980230;28;20023;-69
2021/09/17 10:07:09;;;;;;;5.88;3.88;;;19.10;82.30;;;;;;4978646;28;20317;-69
2021/09/17 10:09:37;;;;;;;6.03;3.80;;;19.20;79.80;;;;;;4980953;28;20027;-69
2021/09/17 10:12:10;;;;;;;6.13;4.32;;;19.10;81.40;;;;;;4974274;28;20105;-69
2021/09/17 10:14:38;;;;;;;6.82;4.28;;;18.90;80.30;;;;;;4967386;28;20030;-69
2021/09/17 10:17:11;;;;;;;6.70;3.13;;;18.40;81.10;;;;;;4980460;28;20027;-70
2021/09/17 10:19:38;;;;;;;4.80;2.92;;;18.10;79.00;;;;;;4959092;28;20023;-71
2021/09/17 10:22:05;;;;;;;4.70;3.05;;;18.50;78.60;;;;;;4972687;28;20023;-68
2021/09/17 10:24:37;;;;;;;4.35;2.78;;;18.70;78.20;;;;;;4964769;28;20057;-69
2021/09/17 10:27:10;;;;;;;5.45;2.97;;;18.90;77.20;;;;;;4980618;28;20030;-69
2021/09/17 10:29:43;;;;;;;5.18;2.40;;;19.20;77.90;;;;;;4977562;28;20428;-69
2021/09/17 10:32:31;;;;;;;4.43;2.50;;;19.50;78.30;;;;;;4985597;28;20058;-69
2021/09/17 10:35:02;;;;;;;4.68;2.80;;;19.90;74.70;;;;;;4965870;28;20062;-70
2021/09/17 10:38:07;;;;;;;5.38;2.85;;;20.10;76.10;;;;;;4979147;28;20122;-70
2021/09/17 10:40:46;;;;;;;4.75;2.50;;;20.20;72.60;;;;;;4976934;28;20115;-70
2021/09/17 10:43:13;;;;;;;5.00;2.53;;;20.70;72.40;;;;;;4982630;28;20420;-70
2021/09/17 10:45:46;;;;;;;4.25;2.55;;;20.70;72.30;;;;;;4995028;28;20038;-70
2021/09/17 10:48:16;;;;;;;5.78;2.45;;;20.90;70.40;;;;;;4981337;28;20035;-70
2021/09/17 10:50:50;;;;;;;3.70;2.00;;;21.10;71.50;;;;;;4965043;28;20313;-70
2021/09/17 10:53:41;;;;;;;5.60;2.50;;;21.30;69.20;;;;;;4972323;28;20113;-69
2021/09/17 10:56:16;;;;;;;4.38;2.20;;;21.40;69.00;;;;;;4975531;28;20077;-68
2021/09/17 10:58:43;;;;;;;4.00;2.33;;;21.50;67.40;;;;;;4983621;28;20038;-68
2021/09/17 11:01:16;;;;;;;5.72;2.20;;;21.50;70.60;;;;;;4981339;28;20368;-67
2021/09/17 11:03:43;;;;;;;4.05;2.13;;;21.40;70.60;;;;;;4977429;28;20029;-67
2021/09/17 11:06:28;;;;;;;4.57;2.17;;;21.00;70.00;;;;;;4977227;28;20026;-68
2021/09/17 11:09:01;;;;;;;3.70;2.13;;;21.10;69.40;;;;;;4985264;28;20057;-68
2021/09/17 11:11:42;;;;;;;3.80;2.00;;;20.90;69.80;;;;;;4996302;28;20026;-68
2021/09/17 11:14:30;;;;;;;5.32;2.40;;;21.50;70.70;;;;;;4996699;28;20500;-67
2021/09/17 11:16:56;;;;;;;3.80;2.20;;;22.20;69.20;;;;;;4981260;28;20045;-68
2021/09/17 11:19:26;;;;;;;3.85;2.22;;;21.50;68.40;;;;;;4987065;28;20034;-67
2021/09/17 11:21:52;;;;;;;4.95;2.50;;;21.00;71.10;;;;;;4978287;28;20031;-71
2021/09/17 11:24:25;;;;;;;5.03;2.70;;;21.20;70.10;;;;;;4973300;28;20020;-69
2021/09/17 11:26:52;;;;;;;3.90;2.10;;;20.90;70.30;;;;;;4959523;28;20039;-69
2021/09/17 11:29:21;;;;;;;5.97;2.10;;;20.70;71.10;;;;;;4984019;28;20027;-68
2021/09/17 11:31:50;;;;;;;3.72;1.92;;;20.90;70.10;;;;;;4994028;28;20085;-68
2021/09/17 11:34:17;;;;;;;3.00;1.80;;;20.90;71.90;;;;;;4996493;28;20085;-68
2021/09/17 11:36:46;;;;;;;4.43;2.00;;;20.90;71.00;;;;;;4980323;28;20058;-69
2021/09/17 11:39:31;;;;;;;4.20;2.15;;;21.20;68.50;;;;;;4983625;28;20031;-67
2021/09/17 11:42:02;;;;;;;3.25;1.75;;;21.40;68.10;;;;;;4997032;28;20033;-67
2021/09/17 11:44:51;;;;;;;3.15;1.80;;;21.30;69.70;;;;;;4989001;28;20030;-68
2021/09/17 11:47:23;;;;;;;3.90;2.00;;;21.40;65.90;;;;;;4980622;28;20018;-70
2021/09/17 11:49:53;;;;;;;6.63;2.50;;;21.10;68.70;;;;;;4979857;28;20034;-69
2021/09/17 11:52:21;;;;;;;5.13;2.13;;;20.60;70.50;;;;;;4962310;28;20030;-69
2021/09/17 11:55:08;;;;;;;3.97;1.88;;;20.40;69.40;;;;;;4982175;28;20031;-69
2021/09/17 11:57:39;;;;;;;4.65;2.35;;;20.20;71.70;;;;;;4977880;28;20055;-68
2021/09/17 12:00:27;;;;;;;4.32;2.00;;;19.60;71.20;;;;;;4985688;28;20367;-68
2021/09/17 12:02:56;;;;;;;6.13;2.13;;;19.50;71.60;;;;;;4971875;28;20029;-69
2021/09/17 12:05:26;;;;;;;4.07;2.20;;;19.30;73.20;;;;;;4998378;28;20031;-69
2021/09/17 12:07:53;;;;;;;3.70;2.00;;;19.30;74.40;;;;;;4992649;28;20734;-69
2021/09/17 12:10:25;;;;;;;3.47;1.90;;;19.30;74.00;;;;;;4984518;28;20417;-67
2021/09/17 12:12:58;;;;;;;4.65;2.15;;;19.60;71.00;;;;;;4979007;28;20062;-67
2021/09/17 12:15:28;;;;;;;4.88;2.00;;;20.00;71.20;;;;;;4996932;28;20030;-67
2021/09/17 12:18:00;;;;;;;3.67;1.80;;;20.60;70.90;;;;;;4980536;28;20022;-68
2021/09/17 12:20:47;;;;;;;3.85;1.80;;;21.90;68.40;;;;;;4992496;28;20320;-67
2021/09/17 12:23:18;;;;;;;3.03;1.73;;;23.30;67.20;;;;;;4981588;28;20019;-68
2021/09/17 12:25:47;;;;;;;3.70;1.70;;;24.20;62.50;;;;;;4999255;28;20485;-68
2021/09/17 12:28:18;;;;;;;3.85;1.95;;;24.90;61.80;;;;;;4992234;28;20027;-68
2021/09/17 12:30:45;;;;;;;5.05;2.20;;;23.50;60.70;;;;;;4994707;28;20034;-69
2021/09/17 12:33:22;;;;;;;2.83;1.60;;;22.80;65.80;;;;;;4981727;28;20041;-68
2021/09/17 12:35:53;;;;;;;4.72;2.25;;;23.00;65.00;;;;;;4998769;28;20301;-67
2021/09/17 12:38:22;;;;;;;5.28;2.42;;;22.60;65.50;;;;;;4974873;28;20074;-68
2021/09/17 12:40:54;;;;;;;4.82;2.67;;;21.80;69.40;;;;;;4993286;28;20041;-68
2021/09/17 12:43:27;;;;;;;5.70;2.45;;;21.50;71.40;;;;;;4997360;28;20026;-69